sensor_id;sensor_type;location;lat;lon;timestamp;pressure;altitude;pressure_sealevel;temperature;humidity
63708;BME280;50270;-25.964;28.072;2022-07-19T00:00:16;86030.90;;;14.96;31.16
63708;BME280;50270;-25.964;28.072;2022-07-19T00:02:45;86026.20;;;15.15;31.12
63708;BME280;50270;-25.964;28.072;2022-07-19T00:05:14;86026.91;;;14.71;31.49
63708;BME280;50270;-25.964;28.072;2022-07-19T00:07:43;86022.50;;;14.87;31.30
63708;BME280;50270;-25.964;28.072;2022-07-19T00:10:14;86021.93;;;15.09;31.37
63708;BME280;50270;-25.964;28.072;2022-07-19T00:12:43;86020.26;;;14.98;31.38
63708;BME280;50270;-25.964;28.072;2022-07-19T00:15:13;86021.15;;;14.82;31.30
63708;BME280;50270;-25.964;28.072;2022-07-19T00:17:44;86013.24;;;14.55;31.33
63708;BME280;50270;-25.964;28.072;2022-07-19T00:20:15;86014.23;;;14.45;31.48
63708;BME280;50270;-25.964;28.072;2022-07-19T00:22:45;86011.95;;;14.56;31.62
63708;BME280;50270;-25.964;28.072;2022-07-19T00:25:14;86012.75;;;14.58;31.65
63708;BME280;50270;-25.964;28.072;2022-07-19T00:27:44;86011.66;;;14.54;31.58
63708;BME280;50270;-25.964;28.072;2022-07-19T00:30:13;86016.64;;;14.39;31.47
63708;BME280;50270;-25.964;28.072;2022-07-19T00:32:41;86013.81;;;14.09;31.79
63708;BME280;50270;-25.964;28.072;2022-07-19T00:35:10;86012.51;;;14.15;31.74
63708;BME280;50270;-25.964;28.072;2022-07-19T00:37:38;86014.02;;;14.47;31.62
63708;BME280;50270;-25.964;28.072;2022-07-19T00:40:09;86014.99;;;14.25;31.61
63708;BME280;50270;-25.964;28.072;2022-07-19T00:42:38;86015.71;;;14.11;31.75
63708;BME280;50270;-25.964;28.072;2022-07-19T00:45:07;86019.45;;;14.21;31.74
63708;BME280;50270;-25.964;28.072;2022-07-19T00:47:36;86016.76;;;13.90;31.80
63708;BME280;50270;-25.964;28.072;2022-07-19T00:50:06;86014.30;;;14.28;31.65
63708;BME280;50270;-25.964;28.072;2022-07-19T00:52:35;86015.36;;;14.69;31.44
63708;BME280;50270;-25.964;28.072;2022-07-19T00:55:07;86012.98;;;14.34;31.62
63708;BME280;50270;-25.964;28.072;2022-07-19T00:57:36;86012.65;;;14.36;31.77
63708;BME280;50270;-25.964;28.072;2022-07-19T01:00:06;86011.34;;;14.59;31.26
63708;BME280;50270;-25.964;28.072;2022-07-19T01:02:36;86010.98;;;14.56;31.51
63708;BME280;50270;-25.964;28.072;2022-07-19T01:05:09;86007.93;;;14.50;31.58
63708;BME280;50270;-25.964;28.072;2022-07-19T01:07:40;86008.89;;;14.76;31.29
63708;BME280;50270;-25.964;28.072;2022-07-19T01:10:11;86008.67;;;14.35;31.66
63708;BME280;50270;-25.964;28.072;2022-07-19T01:12:41;86006.71;;;14.38;31.66
63708;BME280;50270;-25.964;28.072;2022-07-19T01:15:16;86007.95;;;14.53;31.64
63708;BME280;50270;-25.964;28.072;2022-07-19T01:17:46;86005.77;;;14.17;31.71
63708;BME280;50270;-25.964;28.072;2022-07-19T01:20:17;86002.24;;;14.66;31.39
63708;BME280;50270;-25.964;28.072;2022-07-19T01:22:47;86001.16;;;14.34;31.69
63708;BME280;50270;-25.964;28.072;2022-07-19T01:25:16;86003.11;;;14.67;31.39
63708;BME280;50270;-25.964;28.072;2022-07-19T01:27:47;85999.16;;;14.53;31.53
63708;BME280;50270;-25.964;28.072;2022-07-19T01:30:18;86003.51;;;14.63;31.56
63708;BME280;50270;-25.964;28.072;2022-07-19T01:32:47;86002.54;;;14.60;31.56
63708;BME280;50270;-25.964;28.072;2022-07-19T01:35:16;86001.00;;;14.37;31.68
63708;BME280;50270;-25.964;28.072;2022-07-19T01:37:45;85994.75;;;14.43;31.57
63708;BME280;50270;-25.964;28.072;2022-07-19T01:40:15;85994.22;;;14.52;31.51
63708;BME280;50270;-25.964;28.072;2022-07-19T01:42:45;85993.72;;;14.70;31.77
63708;BME280;50270;-25.964;28.072;2022-07-19T01:45:15;85990.65;;;14.31;31.70
63708;BME280;50270;-25.964;28.072;2022-07-19T01:47:45;85992.11;;;14.32;31.73
63708;BME280;50270;-25.964;28.072;2022-07-19T01:50:15;85994.99;;;14.45;31.54
63708;BME280;50270;-25.964;28.072;2022-07-19T01:52:46;85994.16;;;14.39;31.64
63708;BME280;50270;-25.964;28.072;2022-07-19T01:55:14;85991.57;;;14.20;31.78
63708;BME280;50270;-25.964;28.072;2022-07-19T01:57:43;85986.09;;;14.23;31.79
63708;BME280;50270;-25.964;28.072;2022-07-19T02:00:13;85979.72;;;14.39;31.83
63708;BME280;50270;-25.964;28.072;2022-07-19T02:02:42;85978.64;;;14.37;31.58
63708;BME280;50270;-25.964;28.072;2022-07-19T02:05:10;85978.45;;;14.40;31.61
63708;BME280;50270;-25.964;28.072;2022-07-19T02:07:39;85974.98;;;14.42;31.86
63708;BME280;50270;-25.964;28.072;2022-07-19T02:10:09;85978.43;;;14.61;31.81
63708;BME280;50270;-25.964;28.072;2022-07-19T02:12:38;85971.32;;;14.07;31.92
63708;BME280;50270;-25.964;28.072;2022-07-19T02:15:08;85970.63;;;14.26;31.97
63708;BME280;50270;-25.964;28.072;2022-07-19T02:17:37;85966.60;;;14.28;31.67
63708;BME280;50270;-25.964;28.072;2022-07-19T02:20:07;85963.45;;;14.44;32.00
63708;BME280;50270;-25.964;28.072;2022-07-19T02:22:36;85960.56;;;13.94;32.01
63708;BME280;50270;-25.964;28.072;2022-07-19T02:25:04;85961.26;;;14.09;31.92
63708;BME280;50270;-25.964;28.072;2022-07-19T02:27:34;85952.67;;;13.84;32.12
63708;BME280;50270;-25.964;28.072;2022-07-19T02:30:03;85954.33;;;13.72;32.28
63708;BME280;50270;-25.964;28.072;2022-07-19T02:32:33;85953.65;;;13.76;32.23
63708;BME280;50270;-25.964;28.072;2022-07-19T02:35:02;85954.39;;;13.74;32.29
63708;BME280;50270;-25.964;28.072;2022-07-19T02:37:31;85953.16;;;13.78;32.21
63708;BME280;50270;-25.964;28.072;2022-07-19T02:39:59;85949.90;;;13.87;32.33
63708;BME280;50270;-25.964;28.072;2022-07-19T02:42:28;85952.20;;;13.99;32.21
63708;BME280;50270;-25.964;28.072;2022-07-19T02:44:57;85951.36;;;14.03;32.17
63708;BME280;50270;-25.964;28.072;2022-07-19T02:47:26;85950.64;;;13.71;32.18
63708;BME280;50270;-25.964;28.072;2022-07-19T02:49:55;85953.96;;;13.82;32.36
63708;BME280;50270;-25.964;28.072;2022-07-19T02:52:24;85951.52;;;14.00;32.22
63708;BME280;50270;-25.964;28.072;2022-07-19T02:54:52;85955.26;;;13.93;32.22
63708;BME280;50270;-25.964;28.072;2022-07-19T02:57:20;85954.14;;;13.93;32.21
63708;BME280;50270;-25.964;28.072;2022-07-19T02:59:50;85953.08;;;13.38;32.57
63708;BME280;50270;-25.964;28.072;2022-07-19T03:02:18;85953.98;;;13.73;32.49
63708;BME280;50270;-25.964;28.072;2022-07-19T03:04:46;85956.71;;;13.75;32.43
63708;BME280;50270;-25.964;28.072;2022-07-19T03:07:15;85959.20;;;13.78;32.38
63708;BME280;50270;-25.964;28.072;2022-07-19T03:09:44;85962.47;;;13.66;32.50
63708;BME280;50270;-25.964;28.072;2022-07-19T03:12:12;85964.03;;;13.75;32.38
63708;BME280;50270;-25.964;28.072;2022-07-19T03:14:40;85968.72;;;14.02;32.37
63708;BME280;50270;-25.964;28.072;2022-07-19T03:17:09;85968.12;;;13.39;32.50
63708;BME280;50270;-25.964;28.072;2022-07-19T03:19:39;85971.65;;;13.95;32.40
63708;BME280;50270;-25.964;28.072;2022-07-19T03:22:08;85970.69;;;13.49;32.32
63708;BME280;50270;-25.964;28.072;2022-07-19T03:24:36;85970.47;;;13.44;32.39
63708;BME280;50270;-25.964;28.072;2022-07-19T03:27:05;85973.36;;;13.67;32.38
63708;BME280;50270;-25.964;28.072;2022-07-19T03:29:34;85977.37;;;13.88;32.42
63708;BME280;50270;-25.964;28.072;2022-07-19T03:32:02;85979.93;;;13.34;32.45
63708;BME280;50270;-25.964;28.072;2022-07-19T03:34:31;85987.52;;;13.45;32.33
63708;BME280;50270;-25.964;28.072;2022-07-19T03:36:59;85991.22;;;13.65;32.39
63708;BME280;50270;-25.964;28.072;2022-07-19T03:39:27;85994.77;;;13.91;32.05
63708;BME280;50270;-25.964;28.072;2022-07-19T03:41:55;85994.58;;;13.97;32.23
63708;BME280;50270;-25.964;28.072;2022-07-19T03:44:24;85992.76;;;13.58;32.43
63708;BME280;50270;-25.964;28.072;2022-07-19T03:46:53;85997.04;;;14.01;32.16
63708;BME280;50270;-25.964;28.072;2022-07-19T03:49:23;85996.13;;;13.68;32.29
63708;BME280;50270;-25.964;28.072;2022-07-19T03:51:52;85997.43;;;13.75;32.20
63708;BME280;50270;-25.964;28.072;2022-07-19T03:54:21;85995.08;;;13.95;32.28
63708;BME280;50270;-25.964;28.072;2022-07-19T03:56:50;85990.73;;;13.79;32.06
63708;BME280;50270;-25.964;28.072;2022-07-19T03:59:18;85991.88;;;13.72;32.19
63708;BME280;50270;-25.964;28.072;2022-07-19T04:01:46;85992.87;;;13.64;32.25
63708;BME280;50270;-25.964;28.072;2022-07-19T04:04:15;85998.86;;;13.51;32.38
63708;BME280;50270;-25.964;28.072;2022-07-19T04:06:44;86011.63;;;13.07;32.30
63708;BME280;50270;-25.964;28.072;2022-07-19T04:09:13;86021.93;;;13.68;32.14
63708;BME280;50270;-25.964;28.072;2022-07-19T04:11:42;86022.94;;;13.78;32.28
63708;BME280;50270;-25.964;28.072;2022-07-19T04:14:11;86022.50;;;14.08;31.96
63708;BME280;50270;-25.964;28.072;2022-07-19T04:16:40;86020.34;;;13.82;32.17
63708;BME280;50270;-25.964;28.072;2022-07-19T04:19:08;86026.73;;;13.40;32.46
63708;BME280;50270;-25.964;28.072;2022-07-19T04:21:37;86028.95;;;13.50;32.28
63708;BME280;50270;-25.964;28.072;2022-07-19T04:24:05;86030.46;;;13.81;32.29
63708;BME280;50270;-25.964;28.072;2022-07-19T04:26:34;86036.26;;;13.62;32.36
63708;BME280;50270;-25.964;28.072;2022-07-19T04:29:03;86038.04;;;13.21;32.57
63708;BME280;50270;-25.964;28.072;2022-07-19T04:31:31;86041.66;;;12.94;32.57
63708;BME280;50270;-25.964;28.072;2022-07-19T04:33:59;86042.92;;;13.59;32.17
63708;BME280;50270;-25.964;28.072;2022-07-19T04:36:28;86042.42;;;13.68;32.10
63708;BME280;50270;-25.964;28.072;2022-07-19T04:38:57;86043.05;;;13.65;32.01
63708;BME280;50270;-25.964;28.072;2022-07-19T04:41:25;86043.49;;;13.56;32.16
63708;BME280;50270;-25.964;28.072;2022-07-19T04:43:54;86046.85;;;13.58;32.34
63708;BME280;50270;-25.964;28.072;2022-07-19T04:46:23;86048.12;;;13.70;32.21
63708;BME280;50270;-25.964;28.072;2022-07-19T04:48:52;86054.61;;;13.63;32.12
63708;BME280;50270;-25.964;28.072;2022-07-19T04:51:21;86050.84;;;13.76;32.15
63708;BME280;50270;-25.964;28.072;2022-07-19T04:53:49;86048.85;;;13.48;32.20
63708;BME280;50270;-25.964;28.072;2022-07-19T04:56:18;86051.13;;;13.29;32.42
63708;BME280;50270;-25.964;28.072;2022-07-19T04:58:47;86053.00;;;13.53;32.57
63708;BME280;50270;-25.964;28.072;2022-07-19T05:01:15;86053.18;;;13.24;32.50
63708;BME280;50270;-25.964;28.072;2022-07-19T05:03:44;86055.07;;;13.32;32.61
63708;BME280;50270;-25.964;28.072;2022-07-19T05:06:13;86056.03;;;13.35;32.62
63708;BME280;50270;-25.964;28.072;2022-07-19T05:08:41;86063.42;;;13.04;32.64
63708;BME280;50270;-25.964;28.072;2022-07-19T05:11:10;86062.58;;;13.11;32.56
63708;BME280;50270;-25.964;28.072;2022-07-19T05:13:38;86065.48;;;13.14;32.77
63708;BME280;50270;-25.964;28.072;2022-07-19T05:16:08;86067.19;;;13.19;32.74
63708;BME280;50270;-25.964;28.072;2022-07-19T05:18:38;86069.78;;;13.32;32.57
63708;BME280;50270;-25.964;28.072;2022-07-19T05:21:06;86069.26;;;13.26;32.62
63708;BME280;50270;-25.964;28.072;2022-07-19T05:23:35;86071.84;;;13.00;32.69
63708;BME280;50270;-25.964;28.072;2022-07-19T05:26:04;86076.79;;;13.29;32.65
63708;BME280;50270;-25.964;28.072;2022-07-19T05:28:33;86082.54;;;13.28;32.63
63708;BME280;50270;-25.964;28.072;2022-07-19T05:31:03;86087.06;;;12.65;32.84
63708;BME280;50270;-25.964;28.072;2022-07-19T05:33:32;86086.98;;;13.18;32.83
63708;BME280;50270;-25.964;28.072;2022-07-19T05:36:02;86087.93;;;13.19;32.81
63708;BME280;50270;-25.964;28.072;2022-07-19T05:38:30;86090.34;;;13.28;32.68
63708;BME280;50270;-25.964;28.072;2022-07-19T05:41:00;86094.76;;;13.21;32.76
63708;BME280;50270;-25.964;28.072;2022-07-19T05:43:28;86097.03;;;13.35;32.63
63708;BME280;50270;-25.964;28.072;2022-07-19T05:45:57;86100.73;;;13.23;32.83
63708;BME280;50270;-25.964;28.072;2022-07-19T05:48:26;86101.98;;;13.09;32.77
63708;BME280;50270;-25.964;28.072;2022-07-19T05:50:54;86104.79;;;13.06;32.76
63708;BME280;50270;-25.964;28.072;2022-07-19T05:53:23;86111.54;;;13.31;32.78
63708;BME280;50270;-25.964;28.072;2022-07-19T05:55:52;86112.89;;;13.09;32.75
63708;BME280;50270;-25.964;28.072;2022-07-19T05:58:22;86108.75;;;13.25;32.92
63708;BME280;50270;-25.964;28.072;2022-07-19T06:00:50;86112.53;;;13.14;32.75
63708;BME280;50270;-25.964;28.072;2022-07-19T06:03:19;86112.84;;;13.42;32.72
63708;BME280;50270;-25.964;28.072;2022-07-19T06:05:48;86119.09;;;13.36;32.77
63708;BME280;50270;-25.964;28.072;2022-07-19T06:08:16;86117.67;;;13.35;32.93
63708;BME280;50270;-25.964;28.072;2022-07-19T06:10:45;86120.38;;;13.11;33.02
63708;BME280;50270;-25.964;28.072;2022-07-19T06:13:14;86124.45;;;13.19;32.87
63708;BME280;50270;-25.964;28.072;2022-07-19T06:15:43;86126.12;;;13.16;32.93
63708;BME280;50270;-25.964;28.072;2022-07-19T06:18:12;86128.08;;;13.35;33.09
63708;BME280;50270;-25.964;28.072;2022-07-19T06:20:41;86127.15;;;13.13;33.16
63708;BME280;50270;-25.964;28.072;2022-07-19T06:23:10;86126.62;;;13.26;32.99
63708;BME280;50270;-25.964;28.072;2022-07-19T06:25:39;86127.58;;;13.33;33.25
63708;BME280;50270;-25.964;28.072;2022-07-19T06:28:08;86120.67;;;13.44;33.05
63708;BME280;50270;-25.964;28.072;2022-07-19T06:30:37;86121.47;;;13.55;32.97
63708;BME280;50270;-25.964;28.072;2022-07-19T06:33:05;86124.15;;;13.55;33.06
63708;BME280;50270;-25.964;28.072;2022-07-19T06:35:34;86130.26;;;13.30;33.13
63708;BME280;50270;-25.964;28.072;2022-07-19T06:38:03;86132.01;;;13.41;32.97
63708;BME280;50270;-25.964;28.072;2022-07-19T06:40:32;86134.68;;;13.20;33.05
63708;BME280;50270;-25.964;28.072;2022-07-19T06:43:02;86138.96;;;13.68;33.04
63708;BME280;50270;-25.964;28.072;2022-07-19T06:45:30;86139.90;;;13.55;32.97
63708;BME280;50270;-25.964;28.072;2022-07-19T06:48:00;86139.11;;;13.74;33.10
63708;BME280;50270;-25.964;28.072;2022-07-19T06:50:29;86142.16;;;13.66;33.02
63708;BME280;50270;-25.964;28.072;2022-07-19T06:52:59;86145.07;;;13.38;33.08
63708;BME280;50270;-25.964;28.072;2022-07-19T06:55:28;86146.43;;;13.81;33.08
63708;BME280;50270;-25.964;28.072;2022-07-19T06:57:57;86147.42;;;13.72;33.24
63708;BME280;50270;-25.964;28.072;2022-07-19T07:00:26;86145.33;;;14.11;33.07
63708;BME280;50270;-25.964;28.072;2022-07-19T07:02:56;86147.69;;;13.56;33.20
63708;BME280;50270;-25.964;28.072;2022-07-19T07:05:24;86144.59;;;14.07;33.30
63708;BME280;50270;-25.964;28.072;2022-07-19T07:07:54;86144.95;;;13.84;33.28
63708;BME280;50270;-25.964;28.072;2022-07-19T07:10:23;86146.01;;;13.61;33.27
63708;BME280;50270;-25.964;28.072;2022-07-19T07:12:52;86148.74;;;13.98;33.25
63708;BME280;50270;-25.964;28.072;2022-07-19T07:15:21;86154.86;;;13.79;33.30
63708;BME280;50270;-25.964;28.072;2022-07-19T07:17:50;86160.29;;;14.03;33.42
63708;BME280;50270;-25.964;28.072;2022-07-19T07:20:18;86163.82;;;14.03;33.53
63708;BME280;50270;-25.964;28.072;2022-07-19T07:22:46;86159.04;;;14.07;33.48
63708;BME280;50270;-25.964;28.072;2022-07-19T07:25:15;86162.79;;;14.04;33.57
63708;BME280;50270;-25.964;28.072;2022-07-19T07:27:44;86163.38;;;13.81;33.57
63708;BME280;50270;-25.964;28.072;2022-07-19T07:30:13;86162.11;;;14.13;33.65
63708;BME280;50270;-25.964;28.072;2022-07-19T07:32:42;86165.85;;;14.10;33.70
63708;BME280;50270;-25.964;28.072;2022-07-19T07:35:11;86167.03;;;14.08;33.83
63708;BME280;50270;-25.964;28.072;2022-07-19T07:37:39;86165.81;;;13.85;33.88
63708;BME280;50270;-25.964;28.072;2022-07-19T07:40:09;86163.38;;;13.92;33.70
63708;BME280;50270;-25.964;28.072;2022-07-19T07:42:38;86161.22;;;13.68;33.92
63708;BME280;50270;-25.964;28.072;2022-07-19T07:45:07;86158.26;;;13.94;33.97
63708;BME280;50270;-25.964;28.072;2022-07-19T07:47:36;86154.03;;;13.96;33.81
63708;BME280;50270;-25.964;28.072;2022-07-19T07:50:07;86149.84;;;14.32;33.84
63708;BME280;50270;-25.964;28.072;2022-07-19T07:52:36;86148.80;;;14.22;33.85
63708;BME280;50270;-25.964;28.072;2022-07-19T07:55:05;86143.01;;;14.19;33.88
63708;BME280;50270;-25.964;28.072;2022-07-19T07:57:34;86138.74;;;14.40;33.52
63708;BME280;50270;-25.964;28.072;2022-07-19T08:00:04;86136.54;;;14.48;33.45
63708;BME280;50270;-25.964;28.072;2022-07-19T08:02:44;86142.02;;;14.59;33.43
63708;BME280;50270;-25.964;28.072;2022-07-19T08:05:15;86145.22;;;14.53;33.62
63708;BME280;50270;-25.964;28.072;2022-07-19T08:07:43;86149.69;;;14.65;33.61
63708;BME280;50270;-25.964;28.072;2022-07-19T08:10:12;86148.49;;;14.76;33.42
63708;BME280;50270;-25.964;28.072;2022-07-19T08:12:42;86147.34;;;14.86;33.34
63708;BME280;50270;-25.964;28.072;2022-07-19T08:15:10;86148.88;;;14.85;33.26
63708;BME280;50270;-25.964;28.072;2022-07-19T08:17:39;86146.58;;;14.59;33.17
63708;BME280;50270;-25.964;28.072;2022-07-19T08:20:10;86143.46;;;14.83;33.16
63708;BME280;50270;-25.964;28.072;2022-07-19T08:22:39;86147.38;;;14.95;33.20
63708;BME280;50270;-25.964;28.072;2022-07-19T08:25:09;86147.12;;;15.04;33.27
63708;BME280;50270;-25.964;28.072;2022-07-19T08:27:38;86147.63;;;14.84;33.24
63708;BME280;50270;-25.964;28.072;2022-07-19T08:30:09;86147.59;;;15.13;33.21
63708;BME280;50270;-25.964;28.072;2022-07-19T08:32:39;86148.37;;;14.95;33.26
63708;BME280;50270;-25.964;28.072;2022-07-19T08:35:09;86141.29;;;15.03;33.22
63708;BME280;50270;-25.964;28.072;2022-07-19T08:37:38;86135.82;;;15.04;33.26
63708;BME280;50270;-25.964;28.072;2022-07-19T08:40:08;86129.51;;;15.11;33.14
63708;BME280;50270;-25.964;28.072;2022-07-19T08:42:37;86136.09;;;15.40;33.20
63708;BME280;50270;-25.964;28.072;2022-07-19T08:45:08;86137.77;;;15.04;33.19
63708;BME280;50270;-25.964;28.072;2022-07-19T08:47:38;86135.88;;;15.31;33.34
63708;BME280;50270;-25.964;28.072;2022-07-19T08:50:10;86137.15;;;15.13;33.39
63708;BME280;50270;-25.964;28.072;2022-07-19T08:52:39;86131.72;;;15.18;33.58
63708;BME280;50270;-25.964;28.072;2022-07-19T08:55:09;86135.03;;;15.29;33.58
63708;BME280;50270;-25.964;28.072;2022-07-19T08:57:38;86132.95;;;15.57;33.65
63708;BME280;50270;-25.964;28.072;2022-07-19T09:00:08;86132.74;;;15.43;33.73
63708;BME280;50270;-25.964;28.072;2022-07-19T09:02:37;86130.01;;;15.42;33.63
63708;BME280;50270;-25.964;28.072;2022-07-19T09:05:12;86125.01;;;15.54;33.52
63708;BME280;50270;-25.964;28.072;2022-07-19T09:08:00;86124.08;;;15.58;33.59
63708;BME280;50270;-25.964;28.072;2022-07-19T09:10:30;86121.79;;;15.62;33.67
63708;BME280;50270;-25.964;28.072;2022-07-19T09:13:02;86112.19;;;15.75;33.51
63708;BME280;50270;-25.964;28.072;2022-07-19T09:15:50;86108.14;;;15.74;33.78
63708;BME280;50270;-25.964;28.072;2022-07-19T09:18:20;86105.61;;;15.79;33.90
63708;BME280;50270;-25.964;28.072;2022-07-19T09:20:50;86103.80;;;15.86;33.87
63708;BME280;50270;-25.964;28.072;2022-07-19T09:23:19;86099.38;;;16.01;33.71
63708;BME280;50270;-25.964;28.072;2022-07-19T09:25:50;86095.80;;;16.03;33.85
63708;BME280;50270;-25.964;28.072;2022-07-19T09:28:21;86094.31;;;16.10;33.93
63708;BME280;50270;-25.964;28.072;2022-07-19T09:30:51;86094.90;;;15.79;33.99
63708;BME280;50270;-25.964;28.072;2022-07-19T09:33:22;86092.85;;;15.92;33.85
63708;BME280;50270;-25.964;28.072;2022-07-19T09:35:53;86090.89;;;15.91;33.85
63708;BME280;50270;-25.964;28.072;2022-07-19T09:38:25;86090.82;;;15.98;33.82
63708;BME280;50270;-25.964;28.072;2022-07-19T09:41:07;86092.38;;;16.29;33.73
63708;BME280;50270;-25.964;28.072;2022-07-19T09:43:50;86088.47;;;16.36;33.72
63708;BME280;50270;-25.964;28.072;2022-07-19T09:46:31;86089.91;;;16.00;33.73
63708;BME280;50270;-25.964;28.072;2022-07-19T09:49:05;86083.44;;;16.57;33.64
63708;BME280;50270;-25.964;28.072;2022-07-19T09:51:35;86077.82;;;16.03;33.62
63708;BME280;50270;-25.964;28.072;2022-07-19T09:54:06;86071.35;;;16.15;33.68
63708;BME280;50270;-25.964;28.072;2022-07-19T09:56:37;86082.39;;;16.17;33.77
63708;BME280;50270;-25.964;28.072;2022-07-19T09:59:07;86071.07;;;16.27;33.72
63708;BME280;50270;-25.964;28.072;2022-07-19T10:01:36;86070.80;;;16.45;33.84
63708;BME280;50270;-25.964;28.072;2022-07-19T10:04:09;86068.38;;;16.62;33.63
63708;BME280;50270;-25.964;28.072;2022-07-19T10:06:39;86061.52;;;16.59;33.49
63708;BME280;50270;-25.964;28.072;2022-07-19T10:09:12;86053.93;;;16.59;33.68
63708;BME280;50270;-25.964;28.072;2022-07-19T10:11:42;86036.73;;;16.56;33.49
63708;BME280;50270;-25.964;28.072;2022-07-19T10:14:12;86048.92;;;16.54;33.49
63708;BME280;50270;-25.964;28.072;2022-07-19T10:16:50;86040.89;;;16.57;33.44
63708;BME280;50270;-25.964;28.072;2022-07-19T10:19:37;86037.43;;;16.85;33.35
63708;BME280;50270;-25.964;28.072;2022-07-19T10:22:09;86035.30;;;16.52;33.43
63708;BME280;50270;-25.964;28.072;2022-07-19T10:24:45;86033.93;;;16.73;33.63
63708;BME280;50270;-25.964;28.072;2022-07-19T10:27:15;86033.56;;;17.02;33.53
63708;BME280;50270;-25.964;28.072;2022-07-19T10:29:44;86030.31;;;16.85;33.40
63708;BME280;50270;-25.964;28.072;2022-07-19T10:32:14;86017.35;;;16.67;33.52
63708;BME280;50270;-25.964;28.072;2022-07-19T10:34:43;86008.69;;;16.91;33.68
63708;BME280;50270;-25.964;28.072;2022-07-19T10:37:13;86002.44;;;16.98;33.46
63708;BME280;50270;-25.964;28.072;2022-07-19T10:39:42;86007.41;;;17.03;33.30
63708;BME280;50270;-25.964;28.072;2022-07-19T10:42:17;86004.64;;;17.05;33.30
63708;BME280;50270;-25.964;28.072;2022-07-19T10:45:18;85998.65;;;17.11;33.33
63708;BME280;50270;-25.964;28.072;2022-07-19T10:48:10;86000.10;;;17.15;33.19
63708;BME280;50270;-25.964;28.072;2022-07-19T10:50:46;85991.27;;;17.24;33.20
63708;BME280;50270;-25.964;28.072;2022-07-19T10:53:59;85989.63;;;17.33;33.05
63708;BME280;50270;-25.964;28.072;2022-07-19T10:56:35;85982.07;;;17.18;32.71
63708;BME280;50270;-25.964;28.072;2022-07-19T10:59:05;85978.30;;;17.24;32.96
63708;BME280;50270;-25.964;28.072;2022-07-19T11:01:36;85978.53;;;17.22;32.85
63708;BME280;50270;-25.964;28.072;2022-07-19T11:04:38;85969.18;;;17.33;33.04
63708;BME280;50270;-25.964;28.072;2022-07-19T11:07:12;85968.05;;;17.47;32.62
63708;BME280;50270;-25.964;28.072;2022-07-19T11:09:43;85967.27;;;17.02;32.59
63708;BME280;50270;-25.964;28.072;2022-07-19T11:12:30;85960.91;;;17.61;32.72
63708;BME280;50270;-25.964;28.072;2022-07-19T11:15:03;85953.19;;;17.65;32.72
63708;BME280;50270;-25.964;28.072;2022-07-19T11:17:33;85956.00;;;17.45;32.67
63708;BME280;50270;-25.964;28.072;2022-07-19T11:20:06;85956.39;;;17.27;32.54
63708;BME280;50270;-25.964;28.072;2022-07-19T11:22:38;85952.85;;;17.69;32.79
63708;BME280;50270;-25.964;28.072;2022-07-19T11:25:10;85946.74;;;17.76;32.58
63708;BME280;50270;-25.964;28.072;2022-07-19T11:27:42;85937.44;;;17.61;32.61
63708;BME280;50270;-25.964;28.072;2022-07-19T11:30:12;85935.43;;;17.48;32.43
63708;BME280;50270;-25.964;28.072;2022-07-19T11:32:42;85935.55;;;17.43;32.47
63708;BME280;50270;-25.964;28.072;2022-07-19T11:35:13;85932.06;;;17.79;32.34
63708;BME280;50270;-25.964;28.072;2022-07-19T11:37:43;85925.17;;;17.79;32.37
63708;BME280;50270;-25.964;28.072;2022-07-19T11:40:12;85928.78;;;18.06;32.31
63708;BME280;50270;-25.964;28.072;2022-07-19T11:42:44;85924.55;;;17.86;32.29
63708;BME280;50270;-25.964;28.072;2022-07-19T11:45:15;85918.44;;;17.86;31.93
63708;BME280;50270;-25.964;28.072;2022-07-19T11:47:46;85909.83;;;17.68;32.16
63708;BME280;50270;-25.964;28.072;2022-07-19T11:50:17;85911.97;;;17.62;32.30
63708;BME280;50270;-25.964;28.072;2022-07-19T11:52:49;85910.98;;;17.83;32.07
63708;BME280;50270;-25.964;28.072;2022-07-19T11:55:20;85913.56;;;17.86;32.05
63708;BME280;50270;-25.964;28.072;2022-07-19T11:57:50;85911.48;;;18.09;32.08
63708;BME280;50270;-25.964;28.072;2022-07-19T12:00:21;85912.07;;;17.78;32.11
63708;BME280;50270;-25.964;28.072;2022-07-19T12:02:54;85911.84;;;17.66;32.21
63708;BME280;50270;-25.964;28.072;2022-07-19T12:05:25;85909.10;;;17.84;31.94
63708;BME280;50270;-25.964;28.072;2022-07-19T12:07:56;85903.82;;;18.01;32.05
63708;BME280;50270;-25.964;28.072;2022-07-19T12:10:39;85905.05;;;17.70;32.00
63708;BME280;50270;-25.964;28.072;2022-07-19T12:13:10;85903.89;;;17.63;32.02
63708;BME280;50270;-25.964;28.072;2022-07-19T12:15:50;85906.58;;;17.79;31.75
63708;BME280;50270;-25.964;28.072;2022-07-19T12:18:21;85904.98;;;17.70;31.86
63708;BME280;50270;-25.964;28.072;2022-07-19T12:21:26;85902.35;;;18.03;31.73
63708;BME280;50270;-25.964;28.072;2022-07-19T12:24:27;85899.09;;;18.12;31.53
63708;BME280;50270;-25.964;28.072;2022-07-19T12:26:59;85900.10;;;18.21;31.56
63708;BME280;50270;-25.964;28.072;2022-07-19T12:29:31;85900.13;;;17.85;31.67
63708;BME280;50270;-25.964;28.072;2022-07-19T12:32:02;85902.33;;;17.83;31.71
63708;BME280;50270;-25.964;28.072;2022-07-19T12:34:43;85901.21;;;17.55;31.66
63708;BME280;50270;-25.964;28.072;2022-07-19T12:37:23;85900.35;;;17.79;31.60
63708;BME280;50270;-25.964;28.072;2022-07-19T12:40:03;85899.83;;;17.58;31.60
63708;BME280;50270;-25.964;28.072;2022-07-19T12:42:42;85903.65;;;18.15;31.32
63708;BME280;50270;-25.964;28.072;2022-07-19T12:45:13;85898.27;;;17.45;31.54
63708;BME280;50270;-25.964;28.072;2022-07-19T12:47:42;85895.04;;;17.76;31.47
63708;BME280;50270;-25.964;28.072;2022-07-19T12:50:21;85889.00;;;18.02;31.33
63708;BME280;50270;-25.964;28.072;2022-07-19T12:52:53;85889.21;;;17.68;31.13
63708;BME280;50270;-25.964;28.072;2022-07-19T12:55:24;85889.38;;;17.52;31.34
63708;BME280;50270;-25.964;28.072;2022-07-19T12:57:54;85889.50;;;17.48;31.13